Time;durP1;ratioP1;P1;durP2;ratioP2;P2;SDS_P1;SDS_P2;PMS_P1;PMS_P2;Temp;Humidity;BMP_temperature;BMP_pressure;BME280_temperature;BME280_humidity;BME280_pressure;Samples;Min_cycle;Max_cycle;Signal;HPM_P1;HPM_P2
2023/03/12 00:01:22;;;;;;;19.00;10.00;;;;;;;0.63;91.31;99698.15;181073;1267;43397;-86
2023/03/12 00:05:26;;;;;;;12.50;7.00;;;;;;;0.62;90.93;99694.39;180986;1267;43687;-83
2023/03/12 00:09:30;;;;;;;13.30;7.30;;;;;;;0.58;91.01;99687.55;180996;1267;43001;-87
2023/03/12 00:13:37;;;;;;;10.10;7.50;;;;;;;0.55;90.76;99692.77;180865;1269;58719;-84
2023/03/12 00:17:41;;;;;;;13.60;8.60;;;;;;;0.51;90.81;99695.08;180926;1268;43170;-84
2023/03/12 00:21:45;;;;;;;11.90;7.80;;;;;;;0.49;90.99;99704.09;180879;1268;43436;-82
2023/03/12 00:25:49;;;;;;;13.10;6.70;;;;;;;0.48;90.91;99705.89;180947;1268;43467;-82
2023/03/12 00:29:53;;;;;;;8.40;6.20;;;;;;;0.44;90.65;99704.50;180956;1268;43155;-82
2023/03/12 00:33:59;;;;;;;12.60;7.40;;;;;;;0.44;90.55;99700.51;180917;1268;58153;-82
2023/03/12 00:38:10;;;;;;;8.30;5.70;;;;;;;0.43;90.63;99696.15;180891;1268;43089;-85
2023/03/12 00:42:14;;;;;;;11.00;5.80;;;;;;;0.38;90.49;99700.07;180978;1267;43100;-82
2023/03/12 00:46:18;;;;;;;9.00;6.00;;;;;;;0.40;90.56;99699.80;180991;1267;43237;-85
2023/03/12 00:50:26;;;;;;;23.30;7.30;;;;;;;0.39;90.13;99696.53;180987;1267;43648;-83
2023/03/12 00:54:30;;;;;;;15.40;5.60;;;;;;;0.43;90.07;99695.65;180854;1267;58840;-84
2023/03/12 01:03:46;;;;;;;8.60;4.20;;;;;;;0.50;89.70;99698.80;145160;1264;79522;-81
2023/03/12 01:37:37;;;;;;;8.50;5.00;;;;;;;0.53;89.14;99696.91;149373;1266;81382;-81
2023/03/12 02:02:17;;;;;;;6.40;3.60;;;;;;;0.53;88.43;99700.89;180701;1267;77959;-83
2023/03/12 02:16:25;;;;;;;8.90;3.00;;;;;;;0.61;87.68;99709.42;145439;1264;77004;-80
2023/03/12 02:20:51;;;;;;;4.50;3.70;;;;;;;0.64;87.31;99715.04;180918;1267;43356;-84
2023/03/12 02:25:14;;;;;;;6.90;2.90;;;;;;;0.64;87.10;99714.88;181073;1267;43002;-85
2023/03/12 02:29:18;;;;;;;7.00;3.70;;;;;;;0.64;86.97;99715.56;181034;1267;58368;-83
2023/03/12 02:33:23;;;;;;;7.10;3.50;;;;;;;0.66;86.71;99718.96;180951;1268;43374;-83
2023/03/12 02:37:28;;;;;;;5.30;3.20;;;;;;;0.67;86.59;99717.67;180942;1268;43020;-86
2023/03/12 02:41:36;;;;;;;4.00;3.30;;;;;;;0.73;86.44;99720.89;180985;1268;43075;-84
2023/03/12 02:45:40;;;;;;;5.10;2.90;;;;;;;0.82;85.83;99723.76;180930;1268;43364;-82
2023/03/12 02:49:45;;;;;;;9.10;2.20;;;;;;;0.82;85.30;99729.33;180997;1268;57419;-83
2023/03/12 02:53:53;;;;;;;4.60;3.20;;;;;;;0.88;85.44;99726.56;180979;1268;43713;-83
2023/03/12 02:57:57;;;;;;;3.00;2.30;;;;;;;0.96;84.86;99727.73;180955;1268;43007;-84
2023/03/12 03:02:03;;;;;;;4.90;3.50;;;;;;;1.07;85.00;99730.52;180929;1268;43849;-85
2023/03/12 03:06:10;;;;;;;7.20;3.30;;;;;;;1.18;84.19;99731.86;180986;1268;42989;-85
2023/03/12 03:10:16;;;;;;;5.40;2.20;;;;;;;1.22;83.52;99733.93;180930;1268;57797;-83
2023/03/12 03:14:26;;;;;;;8.40;3.50;;;;;;;1.18;82.96;99732.73;180977;1268;43755;-81
2023/03/12 03:23:36;;;;;;;4.60;3.10;;;;;;;1.14;82.73;99747.80;181066;1267;43110;-81
2023/03/12 03:27:43;;;;;;;4.30;3.60;;;;;;;1.07;82.70;99748.36;180986;1267;43566;-82
2023/03/12 03:31:47;;;;;;;5.00;3.40;;;;;;;0.99;82.25;99747.15;181034;1267;58413;-85
2023/03/12 03:35:55;;;;;;;4.80;3.00;;;;;;;0.99;82.46;99750.83;180935;1267;43446;-85
2023/03/12 03:40:00;;;;;;;4.50;3.10;;;;;;;0.99;82.21;99756.80;180984;1267;43716;-84
2023/03/12 03:58:12;;;;;;;5.50;3.40;;;;;;;0.73;83.06;99766.42;150152;1264;75842;-82
2023/03/12 04:26:14;;;;;;;3.90;2.70;;;;;;;0.63;83.51;99800.08;146751;1270;77699;-83
2023/03/12 04:45:29;;;;;;;4.70;2.70;;;;;;;0.49;83.48;99811.55;142040;1289;82769;-83
2023/03/12 04:49:33;;;;;;;2.10;1.80;;;;;;;0.47;83.05;99816.71;180228;1267;44052;-84
2023/03/12 04:53:36;;;;;;;4.10;2.20;;;;;;;0.52;83.28;99818.91;180454;1267;44086;-83
2023/03/12 04:57:39;;;;;;;3.90;2.20;;;;;;;0.58;83.33;99827.02;180456;1267;44186;-83
2023/03/12 05:01:43;;;;;;;4.70;2.40;;;;;;;0.56;82.98;99833.92;180412;1266;197955;-83
2023/03/12 05:05:46;;;;;;;4.20;3.00;;;;;;;0.54;82.49;99839.21;180477;1267;44098;-83
2023/03/12 05:09:50;;;;;;;4.10;2.80;;;;;;;0.55;82.49;99831.33;180396;1267;44071;-84
2023/03/12 05:13:53;;;;;;;3.40;1.90;;;;;;;0.53;82.46;99836.12;180131;1267;43755;-83
2023/03/12 05:17:56;;;;;;;3.60;2.00;;;;;;;0.52;82.45;99838.83;180505;1266;43760;-83
2023/03/12 05:22:00;;;;;;;4.10;3.10;;;;;;;0.50;82.64;99839.77;180531;1267;58112;-83
2023/03/12 05:26:05;;;;;;;4.30;1.80;;;;;;;0.52;82.53;99842.83;180136;1267;43858;-83
2023/03/12 05:30:09;;;;;;;7.30;2.30;;;;;;;0.54;82.62;99847.77;180544;1267;44079;-83
2023/03/12 05:34:13;;;;;;;2.60;2.20;;;;;;;0.57;82.55;99846.60;180267;1266;43752;-83
2023/03/12 05:38:17;;;;;;;4.50;2.10;;;;;;;0.61;82.45;99845.36;180321;1266;44026;-83
2023/03/12 05:42:20;;;;;;;3.50;2.10;;;;;;;0.68;82.15;99845.74;180337;1267;59282;-83
2023/03/12 05:46:25;;;;;;;3.50;1.60;;;;;;;0.77;82.10;99852.66;180311;1267;44233;-84
2023/03/12 05:50:30;;;;;;;2.70;2.30;;;;;;;0.90;81.53;99856.20;180289;1267;43949;-83
2023/03/12 05:54:33;;;;;;;5.00;2.00;;;;;;;1.02;81.26;99864.88;180339;1267;43749;-83
2023/03/12 05:58:37;;;;;;;2.50;1.60;;;;;;;1.11;81.25;99871.42;180351;1266;43867;-84
2023/03/12 06:02:40;;;;;;;3.70;2.80;;;;;;;1.21;80.85;99874.42;180182;1267;59665;-84
2023/03/12 06:06:44;;;;;;;5.20;2.10;;;;;;;1.37;80.71;99884.13;180033;1267;44171;-84
2023/03/12 06:10:52;;;;;;;2.10;1.50;;;;;;;1.50;80.15;99883.15;180245;1267;43746;-84
2023/03/12 06:14:57;;;;;;;3.60;2.30;;;;;;;1.60;79.52;99883.49;180400;1266;43916;-83
2023/03/12 06:19:02;;;;;;;5.70;1.60;;;;;;;1.72;79.31;99884.68;180241;1267;43960;-84
2023/03/12 06:23:06;;;;;;;4.50;1.90;;;;;;;1.77;78.70;99888.93;180163;1267;58773;-83
2023/03/12 06:27:09;;;;;;;6.60;2.30;;;;;;;1.76;78.31;99885.85;179855;1267;44010;-84
2023/03/12 06:31:13;;;;;;;3.70;2.30;;;;;;;1.75;78.74;99882.40;180162;1267;43904;-84
2023/03/12 06:35:17;;;;;;;7.10;2.30;;;;;;;1.80;78.64;99880.42;180050;1267;49189;-84
2023/03/12 06:39:20;;;;;;;2.80;2.30;;;;;;;1.88;78.44;99882.44;180336;1267;47410;-84
2023/03/12 06:43:25;;;;;;;3.30;1.60;;;;;;;1.98;78.14;99886.27;180427;1266;58310;-84
2023/03/12 06:47:28;;;;;;;4.10;2.20;;;;;;;2.18;78.10;99891.73;180211;1267;43855;-84
2023/03/12 06:51:32;;;;;;;3.50;2.20;;;;;;;2.41;77.97;99899.76;180409;1266;44019;-83
2023/03/12 06:55:35;;;;;;;7.20;1.90;;;;;;;2.70;76.65;99897.34;180120;1267;44219;-84
2023/03/12 06:59:38;;;;;;;6.80;2.80;;;;;;;3.00;75.74;99903.57;180095;1267;44291;-84
2023/03/12 07:03:42;;;;;;;8.50;1.90;;;;;;;3.18;74.10;99907.78;180108;1267;58312;-84
2023/03/12 07:07:45;;;;;;;4.50;2.80;;;;;;;3.38;73.63;99915.80;180105;1267;44111;-84
2023/03/12 07:11:49;;;;;;;2.70;2.40;;;;;;;3.56;73.52;99926.13;179935;1267;44167;-84
2023/03/12 07:15:52;;;;;;;3.00;2.50;;;;;;;3.67;72.50;99927.13;180291;1267;43917;-84
2023/03/12 07:19:55;;;;;;;11.80;3.60;;;;;;;3.69;73.01;99931.34;180238;1267;43788;-84
2023/03/12 07:47:34;;;;;;;4.00;1.70;;;;;;;3.56;72.17;99955.25;180848;1269;58168;-87
2023/03/12 07:51:39;;;;;;;5.30;3.40;;;;;;;3.59;72.83;99964.41;180887;1270;43012;-86
2023/03/12 07:55:46;;;;;;;3.40;2.30;;;;;;;3.64;72.60;99965.83;180910;1269;43294;-86
2023/03/12 07:59:51;;;;;;;3.80;2.20;;;;;;;3.63;72.12;99973.63;180821;1270;43700;-87
2023/03/12 08:03:55;;;;;;;6.90;2.90;;;;;;;3.54;71.99;99974.30;180810;1269;43091;-88
2023/03/12 08:07:59;;;;;;;3.30;2.10;;;;;;;3.38;72.04;99974.37;180889;1270;58783;-87
2023/03/12 08:12:09;;;;;;;4.00;2.00;;;;;;;3.32;73.20;99982.04;180784;1270;43035;-87
2023/03/12 08:16:13;;;;;;;4.50;2.40;;;;;;;3.28;73.61;99979.30;180598;1270;43074;-86
